sensor_id;sensor_type;location;lat;lon;timestamp;P1;durP1;ratioP1;P2;durP2;ratioP2
53145;SDS011;39042;53.150;5.898;2022-12-01T00:01:56;14.73;;;10.40;;
53145;SDS011;39042;53.150;5.898;2022-12-01T00:04:22;14.93;;;9.93;;
53145;SDS011;39042;53.150;5.898;2022-12-01T00:06:47;14.93;;;10.20;;
53145;SDS011;39042;53.150;5.898;2022-12-01T00:09:13;14.03;;;10.20;;
53145;SDS011;39042;53.150;5.898;2022-12-01T00:11:57;16.10;;;11.30;;
53145;SDS011;39042;53.150;5.898;2022-12-01T00:14:23;14.23;;;9.83;;
53145;SDS011;39042;53.150;5.898;2022-12-01T00:16:49;15.13;;;10.70;;
53145;SDS011;39042;53.150;5.898;2022-12-01T00:19:15;15.05;;;10.25;;
53145;SDS011;39042;53.150;5.898;2022-12-01T00:21:41;15.63;;;10.98;;
53145;SDS011;39042;53.150;5.898;2022-12-01T00:24:08;14.00;;;9.90;;
53145;SDS011;39042;53.150;5.898;2022-12-01T00:26:36;15.90;;;10.35;;
53145;SDS011;39042;53.150;5.898;2022-12-01T00:29:02;14.48;;;9.43;;
53145;SDS011;39042;53.150;5.898;2022-12-01T00:31:28;15.80;;;10.63;;
53145;SDS011;39042;53.150;5.898;2022-12-01T00:33:54;15.20;;;10.03;;
53145;SDS011;39042;53.150;5.898;2022-12-01T00:38:46;15.05;;;9.82;;
53145;SDS011;39042;53.150;5.898;2022-12-01T00:41:15;14.43;;;10.40;;
53145;SDS011;39042;53.150;5.898;2022-12-01T00:43:41;13.15;;;9.88;;
53145;SDS011;39042;53.150;5.898;2022-12-01T00:46:07;13.20;;;10.00;;
53145;SDS011;39042;53.150;5.898;2022-12-01T00:48:33;14.97;;;9.83;;
53145;SDS011;39042;53.150;5.898;2022-12-01T00:50:58;14.27;;;9.83;;
53145;SDS011;39042;53.150;5.898;2022-12-01T00:53:24;14.50;;;9.70;;
53145;SDS011;39042;53.150;5.898;2022-12-01T00:55:50;15.03;;;10.13;;
53145;SDS011;39042;53.150;5.898;2022-12-01T00:58:18;15.77;;;10.60;;
53145;SDS011;39042;53.150;5.898;2022-12-01T01:00:44;16.85;;;11.07;;
53145;SDS011;39042;53.150;5.898;2022-12-01T01:03:09;15.10;;;10.03;;
53145;SDS011;39042;53.150;5.898;2022-12-01T01:05:39;12.13;;;8.43;;
53145;SDS011;39042;53.150;5.898;2022-12-01T01:08:07;14.23;;;10.18;;
53145;SDS011;39042;53.150;5.898;2022-12-01T01:10:36;15.02;;;10.32;;
53145;SDS011;39042;53.150;5.898;2022-12-01T01:13:03;16.15;;;10.13;;
53145;SDS011;39042;53.150;5.898;2022-12-01T01:15:29;15.20;;;10.07;;
53145;SDS011;39042;53.150;5.898;2022-12-01T01:17:55;14.43;;;9.50;;
53145;SDS011;39042;53.150;5.898;2022-12-01T01:20:21;17.07;;;11.13;;
53145;SDS011;39042;53.150;5.898;2022-12-01T01:22:46;14.13;;;10.33;;
53145;SDS011;39042;53.150;5.898;2022-12-01T01:25:12;16.57;;;11.07;;
53145;SDS011;39042;53.150;5.898;2022-12-01T01:27:38;14.43;;;9.60;;
53145;SDS011;39042;53.150;5.898;2022-12-01T01:30:04;13.27;;;9.40;;
53145;SDS011;39042;53.150;5.898;2022-12-01T01:32:30;15.55;;;10.85;;
53145;SDS011;39042;53.150;5.898;2022-12-01T01:34:56;15.63;;;10.43;;
53145;SDS011;39042;53.150;5.898;2022-12-01T01:37:22;15.03;;;10.87;;
53145;SDS011;39042;53.150;5.898;2022-12-01T01:39:47;16.70;;;11.10;;
53145;SDS011;39042;53.150;5.898;2022-12-01T01:42:13;14.53;;;9.53;;
53145;SDS011;39042;53.150;5.898;2022-12-01T01:47:21;15.93;;;10.75;;
53145;SDS011;39042;53.150;5.898;2022-12-01T01:49:56;15.48;;;11.18;;
53145;SDS011;39042;53.150;5.898;2022-12-01T01:52:29;15.50;;;10.75;;
53145;SDS011;39042;53.150;5.898;2022-12-01T01:54:55;17.77;;;11.70;;
53145;SDS011;39042;53.150;5.898;2022-12-01T01:57:30;17.17;;;11.07;;
53145;SDS011;39042;53.150;5.898;2022-12-01T02:00:00;16.50;;;11.05;;
53145;SDS011;39042;53.150;5.898;2022-12-01T02:02:40;17.77;;;11.10;;
53145;SDS011;39042;53.150;5.898;2022-12-01T02:07:52;15.98;;;10.80;;
53145;SDS011;39042;53.150;5.898;2022-12-01T02:10:20;15.80;;;10.52;;
53145;SDS011;39042;53.150;5.898;2022-12-01T02:15:32;16.25;;;10.73;;
53145;SDS011;39042;53.150;5.898;2022-12-01T02:40:26;18.88;;;12.05;;
53145;SDS011;39042;53.150;5.898;2022-12-01T02:43:11;14.40;;;9.82;;
53145;SDS011;39042;53.150;5.898;2022-12-01T02:46:01;14.43;;;9.18;;
53145;SDS011;39042;53.150;5.898;2022-12-01T02:48:35;13.60;;;9.23;;
53145;SDS011;39042;53.150;5.898;2022-12-01T02:51:05;15.73;;;11.00;;
53145;SDS011;39042;53.150;5.898;2022-12-01T02:53:34;15.20;;;10.15;;
53145;SDS011;39042;53.150;5.898;2022-12-01T02:56:04;14.65;;;10.00;;
53145;SDS011;39042;53.150;5.898;2022-12-01T02:58:31;15.27;;;9.68;;
53145;SDS011;39042;53.150;5.898;2022-12-01T03:06:27;16.60;;;10.10;;
53145;SDS011;39042;53.150;5.898;2022-12-01T03:09:20;14.00;;;9.77;;
53145;SDS011;39042;53.150;5.898;2022-12-01T03:12:19;13.85;;;9.55;;
53145;SDS011;39042;53.150;5.898;2022-12-01T03:18:00;16.05;;;9.95;;
53145;SDS011;39042;53.150;5.898;2022-12-01T03:23:19;13.75;;;9.68;;
53145;SDS011;39042;53.150;5.898;2022-12-01T03:25:50;15.60;;;10.07;;
53145;SDS011;39042;53.150;5.898;2022-12-01T03:28:19;17.00;;;11.07;;
53145;SDS011;39042;53.150;5.898;2022-12-01T03:30:53;16.02;;;9.75;;
53145;SDS011;39042;53.150;5.898;2022-12-01T03:33:25;15.35;;;10.13;;
53145;SDS011;39042;53.150;5.898;2022-12-01T03:36:00;16.02;;;10.20;;
53145;SDS011;39042;53.150;5.898;2022-12-01T03:39:00;13.77;;;9.63;;
53145;SDS011;39042;53.150;5.898;2022-12-01T03:42:21;14.75;;;9.82;;
53145;SDS011;39042;53.150;5.898;2022-12-01T03:45:53;15.65;;;9.98;;
53145;SDS011;39042;53.150;5.898;2022-12-01T03:48:37;14.73;;;9.35;;
53145;SDS011;39042;53.150;5.898;2022-12-01T03:51:30;13.65;;;9.73;;
53145;SDS011;39042;53.150;5.898;2022-12-01T03:54:10;14.13;;;9.27;;
53145;SDS011;39042;53.150;5.898;2022-12-01T03:56:45;13.55;;;8.73;;
53145;SDS011;39042;53.150;5.898;2022-12-01T03:59:16;13.82;;;9.15;;
53145;SDS011;39042;53.150;5.898;2022-12-01T04:01:45;12.57;;;9.00;;
53145;SDS011;39042;53.150;5.898;2022-12-01T04:04:11;15.15;;;9.75;;
53145;SDS011;39042;53.150;5.898;2022-12-01T04:06:38;15.20;;;9.98;;
53145;SDS011;39042;53.150;5.898;2022-12-01T04:09:06;13.35;;;9.40;;
53145;SDS011;39042;53.150;5.898;2022-12-01T04:11:31;12.37;;;8.90;;
53145;SDS011;39042;53.150;5.898;2022-12-01T04:14:16;12.95;;;8.18;;
53145;SDS011;39042;53.150;5.898;2022-12-01T04:16:42;14.00;;;9.30;;
53145;SDS011;39042;53.150;5.898;2022-12-01T04:19:07;14.40;;;9.43;;
53145;SDS011;39042;53.150;5.898;2022-12-01T04:21:33;13.87;;;9.27;;
53145;SDS011;39042;53.150;5.898;2022-12-01T04:23:59;13.07;;;9.20;;
53145;SDS011;39042;53.150;5.898;2022-12-01T04:26:25;12.07;;;8.03;;
53145;SDS011;39042;53.150;5.898;2022-12-01T04:28:57;13.32;;;8.88;;
53145;SDS011;39042;53.150;5.898;2022-12-01T04:31:27;13.60;;;8.80;;
53145;SDS011;39042;53.150;5.898;2022-12-01T04:33:53;13.15;;;8.38;;
53145;SDS011;39042;53.150;5.898;2022-12-01T04:36:20;13.85;;;8.63;;
53145;SDS011;39042;53.150;5.898;2022-12-01T04:38:46;13.88;;;9.05;;
53145;SDS011;39042;53.150;5.898;2022-12-01T04:41:12;14.47;;;9.20;;
53145;SDS011;39042;53.150;5.898;2022-12-01T04:43:39;14.15;;;8.93;;
53145;SDS011;39042;53.150;5.898;2022-12-01T04:46:05;12.77;;;9.13;;
53145;SDS011;39042;53.150;5.898;2022-12-01T04:48:35;15.10;;;9.77;;
53145;SDS011;39042;53.150;5.898;2022-12-01T04:51:02;14.20;;;8.88;;
53145;SDS011;39042;53.150;5.898;2022-12-01T04:53:29;14.15;;;9.02;;
53145;SDS011;39042;53.150;5.898;2022-12-01T04:55:55;15.07;;;10.38;;
53145;SDS011;39042;53.150;5.898;2022-12-01T04:58:21;14.53;;;9.30;;
53145;SDS011;39042;53.150;5.898;2022-12-01T05:00:47;13.10;;;9.10;;
53145;SDS011;39042;53.150;5.898;2022-12-01T05:03:12;14.70;;;9.47;;
53145;SDS011;39042;53.150;5.898;2022-12-01T05:05:38;13.67;;;8.37;;
53145;SDS011;39042;53.150;5.898;2022-12-01T05:08:04;13.00;;;8.93;;
53145;SDS011;39042;53.150;5.898;2022-12-01T05:10:30;14.27;;;9.20;;
53145;SDS011;39042;53.150;5.898;2022-12-01T05:12:55;16.47;;;9.53;;
53145;SDS011;39042;53.150;5.898;2022-12-01T05:15:22;12.98;;;8.50;;
53145;SDS011;39042;53.150;5.898;2022-12-01T05:17:48;13.02;;;8.13;;
53145;SDS011;39042;53.150;5.898;2022-12-01T05:20:18;14.57;;;10.00;;
53145;SDS011;39042;53.150;5.898;2022-12-01T05:23:04;13.68;;;9.00;;
53145;SDS011;39042;53.150;5.898;2022-12-01T05:25:30;16.10;;;10.10;;
53145;SDS011;39042;53.150;5.898;2022-12-01T05:27:56;13.98;;;9.60;;
53145;SDS011;39042;53.150;5.898;2022-12-01T05:30:22;18.15;;;11.32;;
53145;SDS011;39042;53.150;5.898;2022-12-01T05:32:48;21.38;;;12.02;;
53145;SDS011;39042;53.150;5.898;2022-12-01T05:35:13;21.80;;;13.13;;
53145;SDS011;39042;53.150;5.898;2022-12-01T05:37:39;16.60;;;9.50;;
53145;SDS011;39042;53.150;5.898;2022-12-01T05:40:05;15.57;;;10.17;;
53145;SDS011;39042;53.150;5.898;2022-12-01T05:42:31;17.60;;;10.65;;
53145;SDS011;39042;53.150;5.898;2022-12-01T05:44:57;15.80;;;10.33;;
53145;SDS011;39042;53.150;5.898;2022-12-01T05:47:23;15.03;;;9.17;;
53145;SDS011;39042;53.150;5.898;2022-12-01T05:49:49;16.27;;;9.70;;
53145;SDS011;39042;53.150;5.898;2022-12-01T05:52:14;15.23;;;9.50;;
53145;SDS011;39042;53.150;5.898;2022-12-01T05:54:40;16.43;;;9.80;;
53145;SDS011;39042;53.150;5.898;2022-12-01T05:57:06;14.50;;;9.17;;
53145;SDS011;39042;53.150;5.898;2022-12-01T05:59:32;14.43;;;9.23;;
53145;SDS011;39042;53.150;5.898;2022-12-01T06:01:57;15.03;;;9.43;;
53145;SDS011;39042;53.150;5.898;2022-12-01T06:04:23;15.53;;;10.27;;
53145;SDS011;39042;53.150;5.898;2022-12-01T06:06:49;12.93;;;8.80;;
53145;SDS011;39042;53.150;5.898;2022-12-01T06:09:15;13.43;;;9.02;;
53145;SDS011;39042;53.150;5.898;2022-12-01T06:11:41;14.47;;;9.03;;
53145;SDS011;39042;53.150;5.898;2022-12-01T06:14:07;16.77;;;10.20;;
53145;SDS011;39042;53.150;5.898;2022-12-01T06:16:33;15.05;;;10.02;;
53145;SDS011;39042;53.150;5.898;2022-12-01T06:18:58;17.93;;;11.23;;
53145;SDS011;39042;53.150;5.898;2022-12-01T06:21:24;14.63;;;9.60;;
53145;SDS011;39042;53.150;5.898;2022-12-01T06:23:50;14.00;;;9.30;;
53145;SDS011;39042;53.150;5.898;2022-12-01T06:26:16;16.67;;;10.23;;
53145;SDS011;39042;53.150;5.898;2022-12-01T06:28:41;14.80;;;9.32;;
53145;SDS011;39042;53.150;5.898;2022-12-01T06:31:07;17.13;;;10.43;;
53145;SDS011;39042;53.150;5.898;2022-12-01T06:33:33;14.82;;;9.25;;
53145;SDS011;39042;53.150;5.898;2022-12-01T06:35:59;12.87;;;8.17;;
53145;SDS011;39042;53.150;5.898;2022-12-01T06:38:32;13.05;;;8.32;;
53145;SDS011;39042;53.150;5.898;2022-12-01T06:40:59;14.98;;;8.88;;
53145;SDS011;39042;53.150;5.898;2022-12-01T06:45:51;13.80;;;8.02;;
53145;SDS011;39042;53.150;5.898;2022-12-01T06:48:17;15.67;;;9.40;;
53145;SDS011;39042;53.150;5.898;2022-12-01T06:50:42;13.40;;;8.83;;
53145;SDS011;39042;53.150;5.898;2022-12-01T06:53:08;15.53;;;9.53;;
53145;SDS011;39042;53.150;5.898;2022-12-01T06:55:35;14.65;;;8.23;;
53145;SDS011;39042;53.150;5.898;2022-12-01T07:00:28;12.13;;;8.27;;
53145;SDS011;39042;53.150;5.898;2022-12-01T07:02:53;13.93;;;8.30;;
53145;SDS011;39042;53.150;5.898;2022-12-01T07:05:19;13.57;;;8.73;;
53145;SDS011;39042;53.150;5.898;2022-12-01T07:07:45;11.83;;;7.70;;
53145;SDS011;39042;53.150;5.898;2022-12-01T07:10:11;13.40;;;8.93;;
53145;SDS011;39042;53.150;5.898;2022-12-01T07:15:04;11.85;;;7.95;;
53145;SDS011;39042;53.150;5.898;2022-12-01T07:17:32;11.55;;;8.15;;
53145;SDS011;39042;53.150;5.898;2022-12-01T07:19:58;12.40;;;7.95;;
53145;SDS011;39042;53.150;5.898;2022-12-01T07:22:24;13.35;;;8.02;;
53145;SDS011;39042;53.150;5.898;2022-12-01T07:24:49;12.33;;;8.90;;
53145;SDS011;39042;53.150;5.898;2022-12-01T07:27:15;13.80;;;7.80;;
53145;SDS011;39042;53.150;5.898;2022-12-01T07:29:41;14.63;;;9.30;;
53145;SDS011;39042;53.150;5.898;2022-12-01T07:32:07;14.03;;;9.57;;
53145;SDS011;39042;53.150;5.898;2022-12-01T07:34:32;12.03;;;7.70;;
53145;SDS011;39042;53.150;5.898;2022-12-01T07:36:58;13.20;;;8.80;;
53145;SDS011;39042;53.150;5.898;2022-12-01T07:39:24;15.20;;;9.53;;
53145;SDS011;39042;53.150;5.898;2022-12-01T07:41:50;14.07;;;9.47;;
53145;SDS011;39042;53.150;5.898;2022-12-01T07:44:15;14.70;;;8.60;;
53145;SDS011;39042;53.150;5.898;2022-12-01T07:46:41;13.33;;;8.60;;
53145;SDS011;39042;53.150;5.898;2022-12-01T07:49:07;12.63;;;8.70;;
53145;SDS011;39042;53.150;5.898;2022-12-01T07:51:34;15.25;;;9.70;;
53145;SDS011;39042;53.150;5.898;2022-12-01T07:54:01;14.80;;;9.30;;
53145;SDS011;39042;53.150;5.898;2022-12-01T07:56:28;13.07;;;8.52;;
53145;SDS011;39042;53.150;5.898;2022-12-01T07:58:54;12.40;;;7.97;;
53145;SDS011;39042;53.150;5.898;2022-12-01T08:01:20;13.63;;;8.15;;
53145;SDS011;39042;53.150;5.898;2022-12-01T08:03:49;12.35;;;8.50;;
53145;SDS011;39042;53.150;5.898;2022-12-01T08:06:17;12.75;;;8.05;;
53145;SDS011;39042;53.150;5.898;2022-12-01T08:08:43;12.95;;;8.18;;
53145;SDS011;39042;53.150;5.898;2022-12-01T08:11:10;11.70;;;8.10;;
53145;SDS011;39042;53.150;5.898;2022-12-01T08:13:41;12.82;;;7.82;;
53145;SDS011;39042;53.150;5.898;2022-12-01T08:16:08;14.05;;;7.55;;
53145;SDS011;39042;53.150;5.898;2022-12-01T08:18:35;13.55;;;8.93;;
53145;SDS011;39042;53.150;5.898;2022-12-01T08:21:09;14.75;;;8.15;;
53145;SDS011;39042;53.150;5.898;2022-12-01T08:23:37;14.70;;;9.05;;
53145;SDS011;39042;53.150;5.898;2022-12-01T08:26:04;15.57;;;9.30;;
53145;SDS011;39042;53.150;5.898;2022-12-01T08:28:33;15.73;;;9.45;;
53145;SDS011;39042;53.150;5.898;2022-12-01T08:31:05;17.77;;;9.10;;
53145;SDS011;39042;53.150;5.898;2022-12-01T08:33:32;15.45;;;9.55;;
53145;SDS011;39042;53.150;5.898;2022-12-01T08:36:00;16.00;;;9.10;;
53145;SDS011;39042;53.150;5.898;2022-12-01T08:38:26;15.23;;;9.90;;
53145;SDS011;39042;53.150;5.898;2022-12-01T08:40:52;18.10;;;9.30;;
53145;SDS011;39042;53.150;5.898;2022-12-01T08:43:21;14.85;;;9.63;;
53145;SDS011;39042;53.150;5.898;2022-12-01T08:45:46;15.07;;;9.67;;
53145;SDS011;39042;53.150;5.898;2022-12-01T08:48:13;17.65;;;9.38;;
53145;SDS011;39042;53.150;5.898;2022-12-01T08:50:38;15.33;;;9.63;;
53145;SDS011;39042;53.150;5.898;2022-12-01T08:53:04;19.53;;;10.50;;
53145;SDS011;39042;53.150;5.898;2022-12-01T08:55:30;17.90;;;10.83;;
53145;SDS011;39042;53.150;5.898;2022-12-01T08:57:56;18.77;;;10.40;;
53145;SDS011;39042;53.150;5.898;2022-12-01T09:00:21;16.73;;;10.38;;
53145;SDS011;39042;53.150;5.898;2022-12-01T09:02:47;18.00;;;10.20;;
53145;SDS011;39042;53.150;5.898;2022-12-01T09:05:13;21.60;;;11.40;;
53145;SDS011;39042;53.150;5.898;2022-12-01T09:07:38;17.10;;;9.83;;
53145;SDS011;39042;53.150;5.898;2022-12-01T09:10:05;17.70;;;11.05;;
53145;SDS011;39042;53.150;5.898;2022-12-01T09:12:31;18.25;;;10.27;;
53145;SDS011;39042;53.150;5.898;2022-12-01T09:14:57;16.27;;;10.20;;
53145;SDS011;39042;53.150;5.898;2022-12-01T09:17:23;15.90;;;10.67;;
53145;SDS011;39042;53.150;5.898;2022-12-01T09:19:48;15.83;;;10.40;;
53145;SDS011;39042;53.150;5.898;2022-12-01T10:06:12;15.00;;;9.18;;
53145;SDS011;39042;53.150;5.898;2022-12-01T10:08:59;13.68;;;8.02;;
53145;SDS011;39042;53.150;5.898;2022-12-01T10:11:30;12.57;;;8.02;;
53145;SDS011;39042;53.150;5.898;2022-12-01T10:13:59;13.45;;;7.88;;
53145;SDS011;39042;53.150;5.898;2022-12-01T10:16:27;14.38;;;7.35;;
53145;SDS011;39042;53.150;5.898;2022-12-01T10:19:00;13.82;;;7.53;;
53145;SDS011;39042;53.150;5.898;2022-12-01T10:27:23;11.55;;;7.40;;
53145;SDS011;39042;53.150;5.898;2022-12-01T10:30:04;11.13;;;6.75;;
53145;SDS011;39042;53.150;5.898;2022-12-01T10:32:37;15.35;;;6.90;;
53145;SDS011;39042;53.150;5.898;2022-12-01T10:35:20;9.73;;;6.28;;
53145;SDS011;39042;53.150;5.898;2022-12-01T10:37:49;10.20;;;6.35;;
53145;SDS011;39042;53.150;5.898;2022-12-01T10:40:20;12.20;;;6.25;;
53145;SDS011;39042;53.150;5.898;2022-12-01T10:42:47;10.68;;;6.28;;
53145;SDS011;39042;53.150;5.898;2022-12-01T10:45:22;10.35;;;5.93;;
53145;SDS011;39042;53.150;5.898;2022-12-01T10:48:07;10.07;;;5.82;;
53145;SDS011;39042;53.150;5.898;2022-12-01T10:50:39;11.15;;;6.28;;
53145;SDS011;39042;53.150;5.898;2022-12-01T10:53:08;8.00;;;5.35;;
53145;SDS011;39042;53.150;5.898;2022-12-01T10:55:56;9.75;;;6.03;;
53145;SDS011;39042;53.150;5.898;2022-12-01T10:58:25;8.57;;;5.45;;
53145;SDS011;39042;53.150;5.898;2022-12-01T11:00:59;8.03;;;4.60;;
53145;SDS011;39042;53.150;5.898;2022-12-01T11:03:29;7.28;;;5.15;;
53145;SDS011;39042;53.150;5.898;2022-12-01T11:05:58;8.90;;;5.18;;
53145;SDS011;39042;53.150;5.898;2022-12-01T11:08:42;8.98;;;5.45;;
53145;SDS011;39042;53.150;5.898;2022-12-01T11:11:30;8.50;;;5.20;;
53145;SDS011;39042;53.150;5.898;2022-12-01T11:14:02;8.20;;;4.80;;
53145;SDS011;39042;53.150;5.898;2022-12-01T11:21:55;9.35;;;5.43;;
53145;SDS011;39042;53.150;5.898;2022-12-01T11:24:29;6.90;;;4.70;;
53145;SDS011;39042;53.150;5.898;2022-12-01T11:27:16;7.45;;;4.57;;
53145;SDS011;39042;53.150;5.898;2022-12-01T11:29:54;7.18;;;5.03;;
53145;SDS011;39042;53.150;5.898;2022-12-01T11:32:26;6.53;;;4.35;;
53145;SDS011;39042;53.150;5.898;2022-12-01T11:34:55;6.20;;;4.30;;
53145;SDS011;39042;53.150;5.898;2022-12-01T11:37:34;7.72;;;5.10;;
53145;SDS011;39042;53.150;5.898;2022-12-01T11:42:49;10.20;;;5.03;;
53145;SDS011;39042;53.150;5.898;2022-12-01T11:50:36;7.67;;;4.70;;
53145;SDS011;39042;53.150;5.898;2022-12-01T17:12:06;12.15;;;6.65;;
53145;SDS011;39042;53.150;5.898;2022-12-01T17:15:09;10.93;;;6.97;;
53145;SDS011;39042;53.150;5.898;2022-12-01T17:18:03;8.50;;;5.93;;
53145;SDS011;39042;53.150;5.898;2022-12-01T17:21:50;8.30;;;5.70;;
53145;SDS011;39042;53.150;5.898;2022-12-01T17:24:52;10.25;;;6.13;;
53145;SDS011;39042;53.150;5.898;2022-12-01T17:28:03;7.75;;;5.28;;
53145;SDS011;39042;53.150;5.898;2022-12-01T17:31:20;7.43;;;5.22;;
53145;SDS011;39042;53.150;5.898;2022-12-01T17:33:49;8.23;;;5.68;;
53145;SDS011;39042;53.150;5.898;2022-12-01T17:36:30;10.05;;;6.53;;
53145;SDS011;39042;53.150;5.898;2022-12-01T17:39:42;12.77;;;6.82;;
53145;SDS011;39042;53.150;5.898;2022-12-01T17:42:08;11.68;;;8.10;;
53145;SDS011;39042;53.150;5.898;2022-12-01T17:44:34;13.80;;;8.43;;
53145;SDS011;39042;53.150;5.898;2022-12-01T17:47:00;12.10;;;8.67;;
53145;SDS011;39042;53.150;5.898;2022-12-01T17:49:25;13.53;;;9.20;;
53145;SDS011;39042;53.150;5.898;2022-12-01T17:51:51;14.63;;;8.98;;
53145;SDS011;39042;53.150;5.898;2022-12-01T17:54:17;14.67;;;9.30;;
53145;SDS011;39042;53.150;5.898;2022-12-01T17:56:43;16.42;;;9.85;;
53145;SDS011;39042;53.150;5.898;2022-12-01T17:59:09;17.23;;;10.70;;
53145;SDS011;39042;53.150;5.898;2022-12-01T18:01:35;15.45;;;10.30;;
53145;SDS011;39042;53.150;5.898;2022-12-01T18:04:01;14.63;;;10.27;;
53145;SDS011;39042;53.150;5.898;2022-12-01T18:06:26;15.30;;;10.50;;
53145;SDS011;39042;53.150;5.898;2022-12-01T18:08:52;15.80;;;10.57;;
53145;SDS011;39042;53.150;5.898;2022-12-01T18:11:19;15.57;;;10.45;;
53145;SDS011;39042;53.150;5.898;2022-12-01T18:13:46;16.67;;;10.37;;
53145;SDS011;39042;53.150;5.898;2022-12-01T18:16:14;17.15;;;11.27;;
53145;SDS011;39042;53.150;5.898;2022-12-01T18:18:43;16.88;;;10.68;;
53145;SDS011;39042;53.150;5.898;2022-12-01T18:21:11;16.83;;;10.60;;
53145;SDS011;39042;53.150;5.898;2022-12-01T18:23:38;21.40;;;11.80;;
53145;SDS011;39042;53.150;5.898;2022-12-01T18:26:05;16.95;;;11.27;;
53145;SDS011;39042;53.150;5.898;2022-12-01T18:28:32;17.65;;;11.63;;
53145;SDS011;39042;53.150;5.898;2022-12-01T18:31:06;16.55;;;11.27;;
53145;SDS011;39042;53.150;5.898;2022-12-01T18:33:38;17.77;;;11.60;;
53145;SDS011;39042;53.150;5.898;2022-12-01T18:36:10;14.85;;;10.55;;
53145;SDS011;39042;53.150;5.898;2022-12-01T18:38:37;16.77;;;10.27;;
53145;SDS011;39042;53.150;5.898;2022-12-01T18:41:03;17.92;;;11.63;;
53145;SDS011;39042;53.150;5.898;2022-12-01T18:43:30;18.23;;;11.82;;
53145;SDS011;39042;53.150;5.898;2022-12-01T18:45:56;19.85;;;12.45;;
53145;SDS011;39042;53.150;5.898;2022-12-01T18:48:23;17.08;;;11.43;;
53145;SDS011;39042;53.150;5.898;2022-12-01T18:50:49;18.92;;;12.15;;
53145;SDS011;39042;53.150;5.898;2022-12-01T18:53:16;20.17;;;13.68;;
53145;SDS011;39042;53.150;5.898;2022-12-01T18:55:42;19.50;;;12.98;;
53145;SDS011;39042;53.150;5.898;2022-12-01T18:58:08;17.50;;;12.23;;
53145;SDS011;39042;53.150;5.898;2022-12-01T19:00:34;21.05;;;12.93;;
53145;SDS011;39042;53.150;5.898;2022-12-01T19:03:00;18.90;;;13.50;;
53145;SDS011;39042;53.150;5.898;2022-12-01T19:05:26;20.67;;;12.82;;
53145;SDS011;39042;53.150;5.898;2022-12-01T19:07:52;19.95;;;13.13;;
53145;SDS011;39042;53.150;5.898;2022-12-01T19:10:18;18.05;;;12.38;;
53145;SDS011;39042;53.150;5.898;2022-12-01T19:12:44;19.08;;;12.90;;
53145;SDS011;39042;53.150;5.898;2022-12-01T19:15:10;20.63;;;13.40;;
53145;SDS011;39042;53.150;5.898;2022-12-01T19:17:36;19.38;;;13.07;;
53145;SDS011;39042;53.150;5.898;2022-12-01T19:20:03;19.27;;;12.43;;
53145;SDS011;39042;53.150;5.898;2022-12-01T19:22:30;19.00;;;12.80;;
53145;SDS011;39042;53.150;5.898;2022-12-01T19:24:56;18.33;;;12.43;;
53145;SDS011;39042;53.150;5.898;2022-12-01T23:04:27;22.42;;;13.18;;
53145;SDS011;39042;53.150;5.898;2022-12-01T23:09:22;18.63;;;12.20;;
53145;SDS011;39042;53.150;5.898;2022-12-01T23:14:37;20.35;;;13.00;;
53145;SDS011;39042;53.150;5.898;2022-12-01T23:17:20;18.73;;;11.90;;
53145;SDS011;39042;53.150;5.898;2022-12-01T23:22:37;21.35;;;13.90;;
53145;SDS011;39042;53.150;5.898;2022-12-01T23:25:11;19.77;;;13.05;;
53145;SDS011;39042;53.150;5.898;2022-12-01T23:27:43;19.05;;;12.63;;
53145;SDS011;39042;53.150;5.898;2022-12-01T23:30:11;18.95;;;12.30;;
53145;SDS011;39042;53.150;5.898;2022-12-01T23:32:38;19.40;;;12.23;;
53145;SDS011;39042;53.150;5.898;2022-12-01T23:35:04;20.48;;;13.00;;
53145;SDS011;39042;53.150;5.898;2022-12-01T23:37:38;19.45;;;12.23;;
53145;SDS011;39042;53.150;5.898;2022-12-01T23:40:19;18.35;;;12.20;;
53145;SDS011;39042;53.150;5.898;2022-12-01T23:42:50;16.88;;;11.93;;
